Cape Express — HO5337 — position and weather

sailwx.info

Track history (hours):
 
Tides and Currents Weather Stations Pressure Air Temp Water Temp Dewpoint Dewpoint Depression Visibility Wind Speed Wind Dir Waves Ship Positions

Cape Express

Last reported at 2018-Jan-18 09:57 UTC. Time now 2018-Jan-19 07:26 UTC.
Position N 25°14' W 076°52'.

Length 29 m; draft 2 m.

Type: Cargo ship. MMSI: 370269000.

Date/timePositionNaut miles runAvg speedWind from/ knotsBaromVisibWave heightAir tempDewpointWater temp
2018-Jan-18 09:57N 25°14' W 076°52'510.0
2018-Jan-18 09:26N 25°17' W 076°57'  
2018-Jan-12 15:00N 26°04' W 080°08'0 0.0
2018-Jan-12 14:30N 26°04' W 080°08'0 0.0
2018-Jan-12 13:59N 26°04' W 080°08'0 0.0
2018-Jan-12 13:30N 26°04' W 080°08'0 0.0
2018-Jan-12 13:00N 26°04' W 080°08'0 0.0
2018-Jan-12 12:30N 26°04' W 080°08'0 0.0
2018-Jan-12 12:00N 26°04' W 080°08'0 0.1
2018-Jan-12 11:29N 26°04' W 080°08'2 4.8
2018-Jan-12 11:00N 26°06' W 080°07'5 9.3
2018-Jan-12 10:30N 26°04' W 080°02'4 8.7
2018-Jan-12 10:00N 26°02' W 079°57'5 9.5
2018-Jan-12 09:30N 26°00' W 079°53'5 9.7
2018-Jan-12 09:00N 25°57' W 079°48'510.0
2018-Jan-12 08:30N 25°55' W 079°43'1410.0
2018-Jan-12 07:08N 25°48' W 079°30'210.2
2018-Jan-12 06:56N 25°47' W 079°28'510.6
2018-Jan-12 06:30N 25°45' W 079°24'510.2
2018-Jan-12 06:00N 25°43' W 079°19'1 2.0
2018-Jan-12 05:30N 25°43' W 079°18'0 0.0
2018-Jan-12 05:00N 25°43' W 079°18'0 0.0
2018-Jan-12 04:30N 25°43' W 079°18'0 0.0
2018-Jan-12 04:00N 25°43' W 079°18'0 0.0
2018-Jan-12 03:30N 25°43' W 079°18'0 0.0
2018-Jan-12 03:00N 25°43' W 079°18'0 0.0
2018-Jan-12 02:30N 25°43' W 079°18'0 0.0
2018-Jan-12 02:00N 25°43' W 079°18'0 0.0
2018-Jan-12 01:30N 25°43' W 079°18'0 0.0
2018-Jan-12 01:00N 25°43' W 079°18'0 0.0
2018-Jan-12 00:30N 25°43' W 079°18'0 0.0
2018-Jan-12 00:00N 25°43' W 079°18'2 4.1
2018-Jan-11 23:30N 25°45' W 079°17'0 0.5
2018-Jan-11 23:00N 25°45' W 079°17'0 0.0
2018-Jan-11 22:30N 25°45' W 079°17'0 0.0
2018-Jan-11 22:00N 25°45' W 079°17'0 0.0
2018-Jan-11 21:30N 25°45' W 079°17'0 0.0
2018-Jan-11 21:00N 25°45' W 079°17'0 0.0
2018-Jan-11 20:30N 25°45' W 079°17'0 0.4
2018-Jan-11 20:00N 25°45' W 079°17'2 4.2
2018-Jan-11 19:30N 25°43' W 079°18'0 0.0
2018-Jan-11 19:00N 25°43' W 079°18'0 0.0
2018-Jan-11 18:30N 25°43' W 079°18'0 0.0
2018-Jan-11 18:00N 25°43' W 079°18'0 0.0
2018-Jan-11 17:30N 25°43' W 079°18'0 0.0
2018-Jan-11 17:00N 25°43' W 079°18'0 0.0
2018-Jan-11 16:30N 25°43' W 079°18'0 0.0
2018-Jan-11 16:00N 25°43' W 079°18'1 1.6
2018-Jan-11 15:30N 25°43' W 079°18'4 8.7
2018-Jan-11 15:00N 25°38' W 079°19'4 8.8
2018-Jan-11 14:30N 25°34' W 079°18'1 2.8
2018-Jan-11 14:00N 25°33' W 079°17'0 0.0
2018-Jan-11 13:30N 25°33' W 079°17'0 0.0
2018-Jan-11 13:00N 25°33' W 079°17'0 0.0
2018-Jan-11 12:29N 25°33' W 079°17'0 0.0
2018-Jan-11 12:00N 25°33' W 079°17'0 0.4
2018-Jan-11 11:30N 25°34' W 079°17'4 7.4
2018-Jan-11 10:59N 25°36' W 079°20'5 9.4
2018-Jan-11 10:30N 25°38' W 079°24'5 9.1
2018-Jan-11 10:00N 25°41' W 079°28'4 8.6
2018-Jan-11 09:30N 25°44' W 079°32'4 8.4
2018-Jan-11 08:59N 25°46' W 079°36'4 7.6
2018-Jan-11 08:30N 25°48' W 079°39'4 7.6
2018-Jan-11 08:00N 25°51' W 079°43'4 7.7
2018-Jan-11 07:30N 25°53' W 079°46'4 7.9
2018-Jan-11 07:00N 25°55' W 079°49'4 7.8
2018-Jan-11 06:30N 25°58' W 079°53'4 8.3
2018-Jan-11 06:00N 26°00' W 079°57'4 8.3
2018-Jan-11 05:30N 26°03' W 080°00'4 8.5
2018-Jan-11 04:59N 26°05' W 080°05'3 5.5
2018-Jan-11 04:30N 26°04' W 080°07'0 0.9
2018-Jan-11 04:00N 26°04' W 080°08'0 0.0
2018-Jan-11 03:30N 26°04' W 080°08'0 0.0
2018-Jan-11 03:00N 26°04' W 080°08'0 0.0
2018-Jan-11 02:30N 26°04' W 080°08'0 0.0
2018-Jan-11 02:00N 26°04' W 080°08'0 0.0
2018-Jan-11 01:30N 26°04' W 080°08'0 0.0
2018-Jan-11 01:00N 26°04' W 080°08'0 0.0
2018-Jan-11 00:30N 26°04' W 080°08'0 0.0
2018-Jan-11 00:00N 26°04' W 080°08'0 0.0
2018-Jan-10 23:30N 26°04' W 080°08'0 0.0
2018-Jan-10 23:00N 26°04' W 080°08'1 1.9
2018-Jan-10 22:30N 26°04' W 080°07'4 7.4
2018-Jan-10 22:00N 26°06' W 080°04'2 5.0
2018-Jan-10 21:30N 26°07' W 080°01'5 9.2
2018-Jan-10 21:00N 26°08' W 079°56'4 8.7
2018-Jan-10 20:30N 26°10' W 079°51'4 8.3
2018-Jan-10 19:59N 26°11' W 079°47'4 8.2
2018-Jan-10 19:30N 26°12' W 079°43'4 8.2
2018-Jan-10 19:00N 26°14' W 079°38'4 0.3
2018-Jan-10 05:35N 26°15' W 079°34'110.5
2018-Jan-10 05:30N 26°15' W 079°35'510.6
2018-Jan-10 05:00N 26°13' W 079°41'510.5
2018-Jan-10 04:30N 26°11' W 079°46'510.4
2018-Jan-10 04:00N 26°10' W 079°52'5 9.9
2018-Jan-10 03:30N 26°08' W 079°57'5 9.9
2018-Jan-10 03:00N 26°06' W 080°02'4 8.5
2018-Jan-10 02:30N 26°06' W 080°07'2 4.5
2018-Jan-10 02:00N 26°04' W 080°08'0 0.1
2018-Jan-10 01:30N 26°04' W 080°08'0 0.0
2018-Jan-10 01:00N 26°04' W 080°08'0 0.0
2018-Jan-10 00:30N 26°04' W 080°08'0 0.0
2018-Jan-10 00:00N 26°04' W 080°08'0 0.0
2018-Jan-09 23:30N 26°04' W 080°08'0 0.0
2018-Jan-09 23:00N 26°04' W 080°08'0 0.0
2018-Jan-09 22:30N 26°04' W 080°08'1 1.1
2018-Jan-09 22:00N 26°04' W 080°07'4 7.3
2018-Jan-09 21:30N 26°06' W 080°04'3 5.1
2018-Jan-09 21:00N 26°07' W 080°02'5 9.8
2018-Jan-09 20:30N 26°08' W 079°56'5 9.5
2018-Jan-09 20:00N 26°09' W 079°51'4 8.9
2018-Jan-09 19:30N 26°11' W 079°47'4 8.8
2018-Jan-09 19:00N 26°12' W 079°42'4 8.8
2018-Jan-09 18:29N 26°13' W 079°37'4 0.3
2018-Jan-09 06:11N 26°16' W 079°33'2 8.9
2018-Jan-09 05:59N 26°15' W 079°35'4 9.2
2018-Jan-09 05:30N 26°14' W 079°39'5 9.4
2018-Jan-09 05:00N 26°12' W 079°45'5 9.5
2018-Jan-09 04:30N 26°11' W 079°49'5 9.2
2018-Jan-09 04:00N 26°09' W 079°54'4 8.0
2018-Jan-09 03:30N 26°08' W 079°58'4 7.9
2018-Jan-09 03:00N 26°06' W 080°03'4 7.5
2018-Jan-09 02:30N 26°06' W 080°07'2 4.5
2018-Jan-09 02:00N 26°04' W 080°08'0 0.1
2018-Jan-09 01:30N 26°04' W 080°08'0 0.0
2018-Jan-09 01:00N 26°04' W 080°08'0 0.0
2018-Jan-09 00:30N 26°04' W 080°08'0 0.0
2018-Jan-09 00:00N 26°04' W 080°08'0 0.0
2018-Jan-08 23:30N 26°04' W 080°08'0 0.0
2018-Jan-08 23:00N 26°04' W 080°08'0 0.1
2018-Jan-08 22:30N 26°04' W 080°08'0 0.0
2018-Jan-08 22:00N 26°04' W 080°08'0 0.0
2018-Jan-08 21:30N 26°04' W 080°08'0 0.0
2018-Jan-08 21:00N 26°04' W 080°08'0 0.0
2018-Jan-08 20:30N 26°04' W 080°08'0 0.0
2018-Jan-08 20:00N 26°04' W 080°08'0 0.0
2018-Jan-08 19:30N 26°04' W 080°08'0 0.0
2018-Jan-08 19:00N 26°04' W 080°08'0 0.0
2018-Jan-08 18:30N 26°04' W 080°08'0 0.0
2018-Jan-08 18:00N 26°04' W 080°08'0 0.0
2018-Jan-08 17:30N 26°04' W 080°08'0 0.0
2018-Jan-08 17:00N 26°04' W 080°08'0 0.0
2018-Jan-08 16:30N 26°04' W 080°08'0 0.0
2018-Jan-08 16:00N 26°04' W 080°08'0 0.0
2018-Jan-08 15:30N 26°04' W 080°08'0 0.0
2018-Jan-08 15:00N 26°04' W 080°08'0 0.0
2018-Jan-08 14:30N 26°04' W 080°08'0 0.0
2018-Jan-08 14:00N 26°04' W 080°08'0 0.0
2018-Jan-08 13:30N 26°04' W 080°08'0 0.0
2018-Jan-08 13:00N 26°04' W 080°08'0 0.1
2018-Jan-08 12:30N 26°04' W 080°08'0 0.0
2018-Jan-08 12:00N 26°04' W 080°08'0 0.1
2018-Jan-08 11:30N 26°04' W 080°08'0 0.0
2018-Jan-08 11:00N 26°04' W 080°08'0 0.0
2018-Jan-08 10:30N 26°04' W 080°08'0 0.0
2018-Jan-08 10:00N 26°04' W 080°08'  
Track history (hours):
 
Tides and Currents Weather Stations Pressure Air Temp Water Temp Dewpoint Dewpoint Depression Visibility Wind Speed Wind Dir Waves Ship Positions

Cape Express

Last reported at 2018-Jan-18 09:57 UTC. Time now 2018-Jan-19 07:26 UTC.
Position N 25°14' W 076°52'.

Length 29 m; draft 2 m.

Type: Cargo ship. MMSI: 370269000.

Date/timePositionNaut miles runAvg speedWind from/ knotsBaromVisibWave heightAir tempDewpointWater temp
2018-Jan-18 09:57N 25°14' W 076°52'510.0
2018-Jan-18 09:26N 25°17' W 076°57'  
2018-Jan-12 15:00N 26°04' W 080°08'0 0.0
2018-Jan-12 14:30N 26°04' W 080°08'0 0.0
2018-Jan-12 13:59N 26°04' W 080°08'0 0.0
2018-Jan-12 13:30N 26°04' W 080°08'0 0.0
2018-Jan-12 13:00N 26°04' W 080°08'0 0.0
2018-Jan-12 12:30N 26°04' W 080°08'0 0.0
2018-Jan-12 12:00N 26°04' W 080°08'0 0.1
2018-Jan-12 11:29N 26°04' W 080°08'2 4.8
2018-Jan-12 11:00N 26°06' W 080°07'5 9.3
2018-Jan-12 10:30N 26°04' W 080°02'4 8.7
2018-Jan-12 10:00N 26°02' W 079°57'5 9.5
2018-Jan-12 09:30N 26°00' W 079°53'5 9.7
2018-Jan-12 09:00N 25°57' W 079°48'510.0
2018-Jan-12 08:30N 25°55' W 079°43'1410.0
2018-Jan-12 07:08N 25°48' W 079°30'210.2
2018-Jan-12 06:56N 25°47' W 079°28'510.6
2018-Jan-12 06:30N 25°45' W 079°24'510.2
2018-Jan-12 06:00N 25°43' W 079°19'1 2.0
2018-Jan-12 05:30N 25°43' W 079°18'0 0.0
2018-Jan-12 05:00N 25°43' W 079°18'0 0.0
2018-Jan-12 04:30N 25°43' W 079°18'0 0.0
2018-Jan-12 04:00N 25°43' W 079°18'0 0.0
2018-Jan-12 03:30N 25°43' W 079°18'0 0.0
2018-Jan-12 03:00N 25°43' W 079°18'0 0.0
2018-Jan-12 02:30N 25°43' W 079°18'0 0.0
2018-Jan-12 02:00N 25°43' W 079°18'0 0.0
2018-Jan-12 01:30N 25°43' W 079°18'0 0.0
2018-Jan-12 01:00N 25°43' W 079°18'0 0.0
2018-Jan-12 00:30N 25°43' W 079°18'0 0.0
2018-Jan-12 00:00N 25°43' W 079°18'2 4.1
2018-Jan-11 23:30N 25°45' W 079°17'0 0.5
2018-Jan-11 23:00N 25°45' W 079°17'0 0.0
2018-Jan-11 22:30N 25°45' W 079°17'0 0.0
2018-Jan-11 22:00N 25°45' W 079°17'0 0.0
2018-Jan-11 21:30N 25°45' W 079°17'0 0.0
2018-Jan-11 21:00N 25°45' W 079°17'0 0.0
2018-Jan-11 20:30N 25°45' W 079°17'0 0.4
2018-Jan-11 20:00N 25°45' W 079°17'2 4.2
2018-Jan-11 19:30N 25°43' W 079°18'0 0.0
2018-Jan-11 19:00N 25°43' W 079°18'0 0.0
2018-Jan-11 18:30N 25°43' W 079°18'0 0.0
2018-Jan-11 18:00N 25°43' W 079°18'0 0.0
2018-Jan-11 17:30N 25°43' W 079°18'0 0.0
2018-Jan-11 17:00N 25°43' W 079°18'0 0.0
2018-Jan-11 16:30N 25°43' W 079°18'0 0.0
2018-Jan-11 16:00N 25°43' W 079°18'1 1.6
2018-Jan-11 15:30N 25°43' W 079°18'4 8.7
2018-Jan-11 15:00N 25°38' W 079°19'4 8.8
2018-Jan-11 14:30N 25°34' W 079°18'1 2.8
2018-Jan-11 14:00N 25°33' W 079°17'0 0.0
2018-Jan-11 13:30N 25°33' W 079°17'0 0.0
2018-Jan-11 13:00N 25°33' W 079°17'0 0.0
2018-Jan-11 12:29N 25°33' W 079°17'0 0.0
2018-Jan-11 12:00N 25°33' W 079°17'0 0.4
2018-Jan-11 11:30N 25°34' W 079°17'4 7.4
2018-Jan-11 10:59N 25°36' W 079°20'5 9.4
2018-Jan-11 10:30N 25°38' W 079°24'5 9.1
2018-Jan-11 10:00N 25°41' W 079°28'4 8.6
2018-Jan-11 09:30N 25°44' W 079°32'4 8.4
2018-Jan-11 08:59N 25°46' W 079°36'4 7.6
2018-Jan-11 08:30N 25°48' W 079°39'4 7.6
2018-Jan-11 08:00N 25°51' W 079°43'4 7.7
2018-Jan-11 07:30N 25°53' W 079°46'4 7.9
2018-Jan-11 07:00N 25°55' W 079°49'4 7.8
2018-Jan-11 06:30N 25°58' W 079°53'4 8.3
2018-Jan-11 06:00N 26°00' W 079°57'4 8.3
2018-Jan-11 05:30N 26°03' W 080°00'4 8.5
2018-Jan-11 04:59N 26°05' W 080°05'3 5.5
2018-Jan-11 04:30N 26°04' W 080°07'0 0.9
2018-Jan-11 04:00N 26°04' W 080°08'0 0.0
2018-Jan-11 03:30N 26°04' W 080°08'0 0.0
2018-Jan-11 03:00N 26°04' W 080°08'0 0.0
2018-Jan-11 02:30N 26°04' W 080°08'0 0.0
2018-Jan-11 02:00N 26°04' W 080°08'0 0.0
2018-Jan-11 01:30N 26°04' W 080°08'0 0.0
2018-Jan-11 01:00N 26°04' W 080°08'0 0.0
2018-Jan-11 00:30N 26°04' W 080°08'0 0.0
2018-Jan-11 00:00N 26°04' W 080°08'0 0.0
2018-Jan-10 23:30N 26°04' W 080°08'0 0.0
2018-Jan-10 23:00N 26°04' W 080°08'1 1.9
2018-Jan-10 22:30N 26°04' W 080°07'4 7.4
2018-Jan-10 22:00N 26°06' W 080°04'2 5.0
2018-Jan-10 21:30N 26°07' W 080°01'5 9.2
2018-Jan-10 21:00N 26°08' W 079°56'4 8.7
2018-Jan-10 20:30N 26°10' W 079°51'4 8.3
2018-Jan-10 19:59N 26°11' W 079°47'4 8.2
2018-Jan-10 19:30N 26°12' W 079°43'4 8.2
2018-Jan-10 19:00N 26°14' W 079°38'4 0.3
2018-Jan-10 05:35N 26°15' W 079°34'110.5
2018-Jan-10 05:30N 26°15' W 079°35'510.6
2018-Jan-10 05:00N 26°13' W 079°41'510.5
2018-Jan-10 04:30N 26°11' W 079°46'510.4
2018-Jan-10 04:00N 26°10' W 079°52'5 9.9
2018-Jan-10 03:30N 26°08' W 079°57'5 9.9
2018-Jan-10 03:00N 26°06' W 080°02'4 8.5
2018-Jan-10 02:30N 26°06' W 080°07'2 4.5
2018-Jan-10 02:00N 26°04' W 080°08'0 0.1
2018-Jan-10 01:30N 26°04' W 080°08'0 0.0
2018-Jan-10 01:00N 26°04' W 080°08'0 0.0
2018-Jan-10 00:30N 26°04' W 080°08'0 0.0
2018-Jan-10 00:00N 26°04' W 080°08'0 0.0
2018-Jan-09 23:30N 26°04' W 080°08'0 0.0
2018-Jan-09 23:00N 26°04' W 080°08'0 0.0
2018-Jan-09 22:30N 26°04' W 080°08'1 1.1
2018-Jan-09 22:00N 26°04' W 080°07'4 7.3
2018-Jan-09 21:30N 26°06' W 080°04'3 5.1
2018-Jan-09 21:00N 26°07' W 080°02'5 9.8
2018-Jan-09 20:30N 26°08' W 079°56'5 9.5
2018-Jan-09 20:00N 26°09' W 079°51'4 8.9
2018-Jan-09 19:30N 26°11' W 079°47'4 8.8
2018-Jan-09 19:00N 26°12' W 079°42'4 8.8
2018-Jan-09 18:29N 26°13' W 079°37'4 0.3
2018-Jan-09 06:11N 26°16' W 079°33'2 8.9
2018-Jan-09 05:59N 26°15' W 079°35'4 9.2
2018-Jan-09 05:30N 26°14' W 079°39'5 9.4
2018-Jan-09 05:00N 26°12' W 079°45'5 9.5
2018-Jan-09 04:30N 26°11' W 079°49'5 9.2
2018-Jan-09 04:00N 26°09' W 079°54'4 8.0
2018-Jan-09 03:30N 26°08' W 079°58'4 7.9
2018-Jan-09 03:00N 26°06' W 080°03'4 7.5
2018-Jan-09 02:30N 26°06' W 080°07'2 4.5
2018-Jan-09 02:00N 26°04' W 080°08'0 0.1
2018-Jan-09 01:30N 26°04' W 080°08'0 0.0
2018-Jan-09 01:00N 26°04' W 080°08'0 0.0
2018-Jan-09 00:30N 26°04' W 080°08'0 0.0
2018-Jan-09 00:00N 26°04' W 080°08'0 0.0
2018-Jan-08 23:30N 26°04' W 080°08'0 0.0
2018-Jan-08 23:00N 26°04' W 080°08'0 0.1
2018-Jan-08 22:30N 26°04' W 080°08'0 0.0
2018-Jan-08 22:00N 26°04' W 080°08'0 0.0
2018-Jan-08 21:30N 26°04' W 080°08'0 0.0
2018-Jan-08 21:00N 26°04' W 080°08'0 0.0
2018-Jan-08 20:30N 26°04' W 080°08'0 0.0
2018-Jan-08 20:00N 26°04' W 080°08'0 0.0
2018-Jan-08 19:30N 26°04' W 080°08'0 0.0
2018-Jan-08 19:00N 26°04' W 080°08'0 0.0
2018-Jan-08 18:30N 26°04' W 080°08'0 0.0
2018-Jan-08 18:00N 26°04' W 080°08'0 0.0
2018-Jan-08 17:30N 26°04' W 080°08'0 0.0
2018-Jan-08 17:00N 26°04' W 080°08'0 0.0
2018-Jan-08 16:30N 26°04' W 080°08'0 0.0
2018-Jan-08 16:00N 26°04' W 080°08'0 0.0
2018-Jan-08 15:30N 26°04' W 080°08'0 0.0
2018-Jan-08 15:00N 26°04' W 080°08'0 0.0
2018-Jan-08 14:30N 26°04' W 080°08'0 0.0
2018-Jan-08 14:00N 26°04' W 080°08'0 0.0
2018-Jan-08 13:30N 26°04' W 080°08'0 0.0
2018-Jan-08 13:00N 26°04' W 080°08'0 0.1
2018-Jan-08 12:30N 26°04' W 080°08'0 0.0
2018-Jan-08 12:00N 26°04' W 080°08'0 0.1
2018-Jan-08 11:30N 26°04' W 080°08'0 0.0
2018-Jan-08 11:00N 26°04' W 080°08'0 0.0
2018-Jan-08 10:30N 26°04' W 080°08'0 0.0
2018-Jan-08 10:00N 26°04' W 080°08'  

Dump ship's entire track history